createdAt,value
2023-01-20T00:01:29.208Z,79.92
2023-01-20T00:03:56.879Z,79.73
2023-01-20T00:06:24.619Z,79.38
2023-01-20T00:08:52.029Z,79.74
2023-01-20T00:11:19.175Z,79.56
2023-01-20T00:13:46.341Z,79.67
2023-01-20T00:16:14.007Z,79.53
2023-01-20T00:18:41.438Z,81.53
2023-01-20T00:21:10.032Z,81.51
2023-01-20T00:23:36.914Z,82.09
2023-01-20T00:26:05.024Z,82.52
2023-01-20T00:28:32.257Z,80.93
2023-01-20T00:30:59.203Z,81.12
2023-01-20T00:33:26.162Z,82.08
2023-01-20T00:35:53.050Z,81.90
2023-01-20T00:38:20.430Z,81.36
2023-01-20T00:40:53.709Z,80.83
2023-01-20T00:43:20.627Z,80.31
2023-01-20T00:45:47.468Z,80.32
2023-01-20T00:48:14.329Z,80.23
2023-01-20T00:50:41.313Z,80.15
2023-01-20T00:53:08.159Z,80.20
2023-01-20T00:55:34.971Z,80.34
2023-01-20T00:58:02.078Z,80.54
2023-01-20T01:00:28.937Z,80.28
2023-01-20T01:02:56.084Z,80.50
2023-01-20T01:05:23.318Z,80.60
2023-01-20T01:07:50.169Z,81.00
2023-01-20T01:10:17.253Z,81.07
2023-01-20T01:12:44.110Z,80.65
2023-01-20T01:15:11.620Z,80.50
2023-01-20T01:17:38.742Z,80.19
2023-01-20T01:20:05.986Z,80.22
2023-01-20T01:22:33.565Z,80.46
2023-01-20T01:25:00.512Z,80.38
2023-01-20T01:27:28.194Z,80.89
2023-01-20T01:29:55.899Z,80.48
2023-01-20T01:32:23.123Z,80.83
2023-01-20T01:34:49.955Z,80.57
2023-01-20T01:37:16.809Z,80.19
2023-01-20T01:39:43.713Z,79.89
2023-01-20T01:42:12.063Z,80.03
2023-01-20T01:44:39.926Z,79.28
2023-01-20T01:47:06.782Z,79.23
2023-01-20T01:49:33.803Z,78.59
2023-01-20T01:52:03.323Z,78.91
2023-01-20T01:54:34.475Z,78.12
2023-01-20T01:57:01.751Z,78.37
2023-01-20T01:59:28.676Z,78.14
2023-01-20T02:01:56.239Z,78.09
2023-01-20T02:04:24.671Z,78.71
2023-01-20T02:06:54.745Z,78.39
2023-01-20T02:09:21.592Z,78.38
2023-01-20T02:11:50.997Z,78.38
2023-01-20T02:14:19.019Z,78.47
2023-01-20T02:16:47.304Z,78.55
2023-01-20T02:19:17.152Z,78.81
2023-01-20T02:21:47.047Z,78.72
2023-01-20T02:24:23.927Z,78.85
2023-01-20T02:26:53.947Z,79.53
2023-01-20T02:29:22.131Z,79.57
2023-01-20T02:31:50.345Z,79.61
2023-01-20T02:34:26.079Z,79.61
2023-01-20T02:36:55.987Z,79.53
2023-01-20T02:39:31.191Z,79.45
2023-01-20T02:42:01.056Z,79.56
2023-01-20T02:44:29.437Z,79.30
2023-01-20T02:46:59.321Z,79.46
2023-01-20T02:49:26.617Z,79.54
2023-01-20T02:51:56.486Z,79.44
2023-01-20T02:54:25.724Z,79.82
2023-01-20T02:56:53.492Z,79.65
2023-01-20T02:59:24.590Z,79.87
2023-01-20T03:01:54.549Z,79.49
2023-01-20T03:04:24.883Z,80.13
2023-01-20T03:06:53.799Z,80.07
2023-01-20T03:09:25.746Z,80.31
2023-01-20T03:11:56.847Z,80.65
2023-01-20T03:14:23.695Z,80.21
2023-01-20T03:16:50.673Z,80.32
2023-01-20T03:19:20.335Z,80.59
2023-01-20T03:21:47.639Z,80.51
2023-01-20T03:24:14.546Z,80.41
2023-01-20T03:26:41.418Z,79.92
2023-01-20T03:29:09.220Z,80.21
2023-01-20T03:31:39.986Z,80.21
2023-01-20T03:34:11.315Z,80.20
2023-01-20T03:36:39.847Z,80.32
2023-01-20T03:39:06.772Z,80.04
2023-01-20T03:41:35.021Z,80.09
2023-01-20T03:44:10.831Z,79.95
2023-01-20T03:46:42.559Z,80.20
2023-01-20T03:49:15.951Z,80.33
2023-01-20T03:51:45.846Z,80.20
2023-01-20T03:54:15.780Z,80.21
2023-01-20T03:56:46.054Z,80.12
2023-01-20T03:59:14.563Z,80.04
2023-01-20T04:01:43.831Z,80.54
2023-01-20T04:04:14.817Z,81.06
2023-01-20T04:06:42.653Z,80.45
2023-01-20T04:09:11.652Z,80.79
2023-01-20T04:11:38.672Z,80.42
2023-01-20T04:14:06.005Z,80.45
2023-01-20T04:16:32.954Z,80.73
2023-01-20T04:18:59.815Z,80.82
2023-01-20T04:21:31.733Z,81.62
2023-01-20T04:24:01.649Z,81.06
2023-01-20T04:26:28.841Z,81.80
2023-01-20T04:28:55.646Z,81.81
2023-01-20T04:31:30.551Z,81.55
2023-01-20T04:33:58.201Z,80.73
2023-01-20T04:36:25.056Z,80.22
2023-01-20T04:38:51.971Z,80.21
2023-01-20T04:41:18.795Z,80.65
2023-01-20T04:43:46.174Z,80.53
2023-01-20T04:46:13.550Z,80.51
2023-01-20T04:48:40.874Z,80.08
2023-01-20T04:51:08.251Z,80.38
2023-01-20T04:53:35.298Z,79.76
2023-01-20T04:56:02.211Z,80.19
2023-01-20T04:58:29.139Z,80.35
2023-01-20T05:00:56.304Z,80.27
2023-01-20T05:03:23.147Z,80.42
2023-01-20T05:05:53.603Z,80.21
2023-01-20T05:08:20.627Z,80.16
2023-01-20T05:10:47.604Z,80.55
2023-01-20T05:13:14.620Z,80.78
2023-01-20T05:15:42.318Z,80.66
2023-01-20T05:18:09.179Z,80.76
2023-01-20T05:20:36.071Z,80.42
2023-01-20T05:23:02.936Z,80.99
2023-01-20T05:25:29.887Z,81.19
2023-01-20T05:27:56.735Z,80.72
2023-01-20T05:30:23.596Z,80.95
2023-01-20T05:32:51.342Z,80.67
2023-01-20T05:35:18.633Z,80.57
2023-01-20T05:37:45.551Z,80.58
2023-01-20T05:40:12.673Z,80.85
2023-01-20T05:42:39.734Z,81.09
2023-01-20T05:45:07.205Z,81.33
2023-01-20T05:47:34.015Z,81.45
2023-01-20T05:50:01.875Z,80.95
2023-01-20T05:52:28.696Z,81.19
2023-01-20T05:54:55.682Z,81.19
2023-01-20T05:57:25.611Z,80.71
2023-01-20T05:59:53.024Z,81.03
2023-01-20T06:02:20.302Z,81.41
2023-01-20T06:04:47.293Z,81.28
2023-01-20T06:07:14.523Z,81.30
2023-01-20T06:09:41.933Z,81.42
2023-01-20T06:12:08.745Z,81.11
2023-01-20T06:14:35.676Z,81.14
2023-01-20T06:17:02.483Z,81.57
2023-01-20T06:19:29.306Z,81.42
2023-01-20T06:21:56.150Z,81.68
2023-01-20T06:24:22.994Z,81.88
2023-01-20T06:26:51.580Z,81.60
2023-01-20T06:29:18.427Z,81.48
2023-01-20T06:31:45.918Z,81.23
2023-01-20T06:34:13.082Z,81.46
2023-01-20T06:36:40.199Z,81.62
2023-01-20T06:39:07.202Z,81.39
2023-01-20T06:41:40.720Z,82.01
2023-01-20T06:44:07.613Z,82.21
2023-01-20T06:46:34.791Z,82.00
2023-01-20T06:49:01.810Z,82.27
2023-01-20T06:51:29.851Z,82.10
2023-01-20T06:53:56.744Z,82.45
2023-01-20T06:56:24.062Z,82.37
2023-01-20T06:58:51.395Z,82.08
2023-01-20T07:01:22.515Z,82.16
2023-01-20T07:03:49.750Z,82.06
2023-01-20T07:06:20.450Z,82.50
2023-01-20T07:08:47.427Z,82.19
2023-01-20T07:11:14.299Z,82.12
2023-01-20T07:13:41.399Z,82.22
2023-01-20T07:16:10.991Z,82.32
2023-01-20T07:18:39.372Z,82.25
2023-01-20T07:21:06.602Z,82.13
2023-01-20T07:23:34.037Z,82.08
2023-01-20T07:26:01.962Z,82.18
2023-01-20T07:28:29.180Z,82.32
2023-01-20T07:30:56.066Z,82.49
2023-01-20T07:33:23.239Z,82.96
2023-01-20T07:35:51.829Z,82.83
2023-01-20T07:38:18.740Z,82.88
2023-01-20T07:40:45.631Z,82.67
2023-01-20T07:43:21.075Z,83.18
2023-01-20T07:45:47.947Z,83.11
2023-01-20T07:48:14.984Z,83.07
2023-01-20T07:50:41.830Z,82.89
2023-01-20T07:53:08.787Z,82.86
2023-01-20T07:55:35.647Z,82.99
2023-01-20T07:58:02.736Z,82.75
2023-01-20T08:00:29.653Z,82.92
2023-01-20T08:02:56.593Z,82.88
2023-01-20T08:05:23.523Z,82.50
2023-01-20T08:07:51.023Z,82.39
2023-01-20T08:10:18.105Z,82.62
2023-01-20T08:12:45.086Z,82.52
2023-01-20T08:15:11.969Z,82.13
2023-01-20T08:17:38.872Z,81.85
2023-01-20T08:20:06.412Z,82.54
2023-01-20T08:22:34.721Z,82.37
2023-01-20T08:25:01.627Z,82.44
2023-01-20T08:27:28.498Z,82.78
2023-01-20T08:29:55.921Z,82.44
2023-01-20T08:32:22.885Z,82.76
2023-01-20T08:34:49.883Z,83.25
2023-01-20T08:37:16.763Z,82.88
2023-01-20T08:39:43.598Z,83.03
2023-01-20T08:42:10.533Z,83.50
2023-01-20T08:44:37.470Z,84.46
2023-01-20T08:47:04.423Z,84.63
2023-01-20T08:49:31.456Z,83.94
2023-01-20T08:51:58.662Z,84.27
2023-01-20T08:54:25.889Z,84.43
2023-01-20T08:56:53.615Z,84.79
2023-01-20T08:59:20.678Z,84.52
2023-01-20T09:01:47.610Z,84.30
2023-01-20T09:04:14.511Z,89.67
2023-01-20T09:06:44.118Z,87.67
2023-01-20T09:09:11.502Z,86.25
2023-01-20T09:11:39.385Z,85.16
2023-01-20T09:14:06.370Z,84.09
2023-01-20T09:16:33.321Z,83.45
2023-01-20T09:19:00.295Z,83.31
2023-01-20T09:21:27.236Z,83.50
2023-01-20T09:23:54.355Z,83.76
2023-01-20T09:26:34.726Z,83.06
2023-01-20T09:29:10.054Z,82.46
2023-01-20T09:31:38.720Z,81.83
2023-01-20T09:34:06.011Z,82.00
2023-01-20T09:36:33.050Z,82.15
2023-01-20T09:39:03.057Z,81.75
2023-01-20T09:41:38.001Z,82.13
2023-01-20T09:44:08.034Z,82.20
2023-01-20T09:46:38.103Z,81.99
2023-01-20T09:49:14.796Z,82.00
2023-01-20T09:51:52.603Z,81.81
2023-01-20T09:54:23.468Z,81.77
2023-01-20T09:56:52.265Z,81.94
2023-01-20T09:59:22.430Z,81.84
2023-01-20T10:01:53.277Z,81.74
2023-01-20T10:04:23.271Z,81.93
2023-01-20T10:06:54.290Z,82.20
2023-01-20T10:09:24.283Z,82.16
2023-01-20T10:11:52.484Z,82.42
2023-01-20T10:14:25.745Z,82.14
2023-01-20T10:16:53.942Z,81.87
2023-01-20T10:19:27.430Z,81.28
2023-01-20T10:22:01.948Z,81.01
2023-01-20T10:24:31.777Z,81.15
2023-01-20T10:27:02.005Z,81.38
2023-01-20T10:29:29.314Z,81.49
2023-01-20T10:32:00.329Z,81.29
2023-01-20T10:34:30.620Z,81.14
2023-01-20T10:37:04.886Z,80.84
2023-01-20T10:39:35.188Z,81.26
2023-01-20T10:42:04.781Z,81.44
2023-01-20T10:44:35.402Z,81.76
2023-01-20T10:47:05.527Z,81.02
2023-01-20T10:49:32.857Z,80.62
2023-01-20T10:52:03.235Z,81.16
2023-01-20T10:54:31.704Z,80.93
2023-01-20T10:56:59.850Z,80.64
2023-01-20T10:59:29.924Z,80.49
2023-01-20T11:02:11.585Z,80.24
2023-01-20T11:04:39.785Z,79.98
2023-01-20T11:07:13.349Z,80.10
2023-01-20T11:09:42.330Z,80.13
2023-01-20T11:12:13.856Z,79.95
2023-01-20T11:14:40.986Z,79.61
2023-01-20T11:17:13.293Z,78.95
2023-01-20T11:19:43.309Z,77.72
2023-01-20T11:22:11.391Z,77.14
2023-01-20T11:24:43.011Z,76.78
2023-01-20T11:27:13.257Z,76.62
2023-01-20T11:29:42.969Z,76.55
2023-01-20T11:32:12.976Z,76.42
2023-01-20T11:34:48.776Z,76.84
2023-01-20T11:37:18.177Z,77.41
2023-01-20T11:39:48.127Z,77.28
2023-01-20T11:42:15.364Z,76.97
2023-01-20T11:44:45.363Z,76.49
2023-01-20T11:47:16.965Z,76.06
2023-01-20T11:49:44.210Z,75.94
2023-01-20T11:52:21.335Z,75.51
2023-01-20T11:54:48.495Z,75.24
2023-01-20T11:57:17.256Z,77.69
2023-01-20T11:59:49.873Z,77.15
2023-01-20T12:02:23.766Z,76.07
2023-01-20T12:04:53.422Z,74.83
2023-01-20T12:07:23.824Z,74.40
2023-01-20T12:09:53.291Z,74.61
2023-01-20T12:12:28.044Z,74.97
2023-01-20T12:14:58.365Z,75.61
2023-01-20T12:17:27.207Z,75.00
2023-01-20T12:19:59.256Z,74.79
2023-01-20T12:22:29.497Z,74.37
2023-01-20T12:25:00.275Z,74.11
2023-01-20T12:27:28.217Z,74.30
2023-01-20T12:29:59.366Z,74.81
2023-01-20T12:32:26.430Z,73.45
2023-01-20T12:34:53.562Z,73.88
2023-01-20T12:37:25.662Z,74.37
2023-01-20T12:40:04.763Z,74.89
2023-01-20T12:42:32.186Z,75.17
2023-01-20T12:45:04.217Z,73.44
2023-01-20T12:47:34.339Z,73.24
2023-01-20T12:50:04.399Z,73.52
2023-01-20T12:52:34.618Z,73.69
2023-01-20T12:55:12.909Z,73.23
2023-01-20T12:57:43.869Z,72.50
2023-01-20T13:00:12.937Z,72.82
2023-01-20T13:02:43.145Z,72.90
2023-01-20T13:05:16.032Z,73.92
2023-01-20T13:07:46.922Z,73.49
2023-01-20T13:10:15.887Z,73.52
2023-01-20T13:12:46.142Z,73.98
2023-01-20T13:15:14.710Z,74.36
2023-01-20T13:17:44.937Z,74.66
2023-01-20T13:20:17.262Z,74.27
2023-01-20T13:22:45.021Z,73.41
2023-01-20T13:25:15.090Z,73.97
2023-01-20T13:27:43.397Z,73.59
2023-01-20T13:30:30.455Z,72.67
2023-01-20T13:33:00.490Z,72.73
2023-01-20T13:35:28.790Z,73.20
2023-01-20T13:37:57.981Z,73.89
2023-01-20T13:40:28.142Z,74.33
2023-01-20T13:42:55.257Z,74.34
2023-01-20T13:45:23.464Z,72.84
2023-01-20T13:47:52.139Z,73.05
2023-01-20T13:50:22.292Z,73.54
2023-01-20T13:52:50.796Z,73.26
2023-01-20T13:55:20.971Z,73.11
2023-01-20T13:57:48.027Z,73.74
2023-01-20T14:00:17.312Z,74.90
2023-01-20T14:02:45.369Z,74.82
2023-01-20T14:05:15.760Z,74.62
2023-01-20T14:07:44.740Z,74.43
2023-01-20T14:10:12.865Z,74.31
2023-01-20T14:12:40.595Z,74.46
2023-01-20T14:15:09.267Z,74.14
2023-01-20T14:17:37.036Z,73.57
2023-01-20T14:20:21.895Z,73.22
2023-01-20T14:22:49.112Z,72.69
2023-01-20T14:25:19.370Z,72.32
2023-01-20T14:27:46.949Z,72.26
2023-01-20T14:30:16.504Z,72.44
2023-01-20T14:32:43.791Z,72.50
2023-01-20T14:35:14.324Z,72.65
2023-01-20T14:37:41.675Z,72.19
2023-01-20T14:40:18.779Z,71.71
2023-01-20T14:42:55.132Z,71.64
2023-01-20T14:45:23.837Z,71.91
2023-01-20T14:47:51.298Z,72.02
2023-01-20T14:50:20.284Z,71.66
2023-01-20T14:52:47.710Z,71.44
2023-01-20T14:55:17.778Z,71.26
2023-01-20T14:57:44.978Z,71.10
2023-01-20T15:00:13.526Z,71.46
2023-01-20T15:02:43.155Z,71.25
2023-01-20T15:05:13.808Z,70.89
2023-01-20T15:07:41.516Z,71.11
2023-01-20T15:10:13.687Z,70.70
2023-01-20T15:12:44.282Z,70.77
2023-01-20T15:15:14.586Z,70.80
2023-01-20T15:18:01.687Z,70.96
2023-01-20T15:20:32.628Z,71.77
2023-01-20T15:23:00.609Z,70.96
2023-01-20T15:25:28.272Z,71.51
2023-01-20T15:27:57.214Z,71.50
2023-01-20T15:30:27.946Z,70.96
2023-01-20T15:32:55.972Z,71.28
2023-01-20T15:35:26.218Z,71.11
2023-01-20T15:37:53.878Z,71.41
2023-01-20T15:40:24.113Z,70.79
2023-01-20T15:42:51.871Z,70.94
2023-01-20T15:45:19.908Z,71.53
2023-01-20T15:47:47.713Z,71.81
2023-01-20T15:50:16.961Z,72.41
2023-01-20T15:52:44.449Z,71.83
2023-01-20T15:55:17.524Z,72.38
2023-01-20T15:57:45.747Z,72.17
2023-01-20T16:00:16.119Z,72.42
2023-01-20T16:02:43.991Z,71.82
2023-01-20T16:05:15.253Z,71.63
2023-01-20T16:07:44.840Z,72.10
2023-01-20T16:10:15.660Z,72.12
2023-01-20T16:12:42.931Z,71.79
2023-01-20T16:15:13.679Z,71.76
2023-01-20T16:17:40.825Z,71.59
2023-01-20T16:20:11.110Z,71.98
2023-01-20T16:22:38.211Z,71.85
2023-01-20T16:25:05.659Z,72.65
2023-01-20T16:27:32.844Z,72.38
2023-01-20T16:30:00.102Z,72.19
2023-01-20T16:32:29.348Z,72.56
2023-01-20T16:34:56.866Z,72.44
2023-01-20T16:37:23.867Z,72.67
2023-01-20T16:39:51.181Z,72.69
2023-01-20T16:42:18.534Z,72.70
2023-01-20T16:44:45.762Z,73.03
2023-01-20T16:47:12.981Z,73.01
2023-01-20T16:49:40.203Z,73.07
2023-01-20T16:52:07.541Z,72.99
2023-01-20T16:54:34.698Z,73.29
2023-01-20T16:57:01.818Z,73.37
2023-01-20T16:59:28.981Z,73.97
2023-01-20T17:01:56.438Z,74.46
2023-01-20T17:04:23.748Z,74.55
2023-01-20T17:06:52.873Z,74.53
2023-01-20T17:09:19.986Z,74.55
2023-01-20T17:11:47.077Z,74.79
2023-01-20T17:14:15.960Z,75.40
2023-01-20T17:16:43.233Z,75.44
2023-01-20T17:19:17.682Z,76.10
2023-01-20T17:21:45.020Z,75.00
2023-01-20T17:24:13.098Z,74.07
2023-01-20T17:26:40.311Z,74.40
2023-01-20T17:29:10.955Z,74.81
2023-01-20T17:31:40.612Z,74.27
2023-01-20T17:34:07.939Z,73.62
2023-01-20T17:36:35.154Z,73.82
2023-01-20T17:39:02.893Z,73.46
2023-01-20T17:41:30.230Z,73.50
2023-01-20T17:43:57.314Z,74.01
2023-01-20T17:46:28.098Z,73.62
2023-01-20T17:48:58.543Z,74.22
2023-01-20T17:51:26.570Z,73.85
2023-01-20T17:53:54.665Z,73.77
2023-01-20T17:56:22.502Z,73.72
2023-01-20T17:58:50.070Z,73.55
2023-01-20T18:01:19.741Z,73.48
2023-01-20T18:03:48.774Z,75.30
2023-01-20T18:06:16.908Z,74.74
2023-01-20T18:08:44.140Z,74.55
2023-01-20T18:11:13.100Z,74.03
2023-01-20T18:13:40.294Z,74.58
2023-01-20T18:16:11.233Z,74.53
2023-01-20T18:18:39.985Z,74.78
2023-01-20T18:21:10.407Z,75.28
2023-01-20T18:23:39.151Z,75.11
2023-01-20T18:26:07.128Z,75.47
2023-01-20T18:28:34.602Z,75.58
2023-01-20T18:31:08.240Z,75.34
2023-01-20T18:33:40.428Z,75.49
2023-01-20T18:36:08.296Z,75.47
2023-01-20T18:38:35.708Z,75.19
2023-01-20T18:41:02.936Z,75.60
2023-01-20T18:43:30.506Z,75.56
2023-01-20T18:45:57.595Z,76.06
2023-01-20T18:48:25.656Z,76.30
2023-01-20T18:50:58.331Z,76.08
2023-01-20T18:53:25.652Z,75.76
2023-01-20T18:55:52.757Z,75.60
2023-01-20T18:58:20.067Z,75.82
2023-01-20T19:00:47.341Z,75.94
2023-01-20T19:03:14.596Z,75.66
2023-01-20T19:05:42.470Z,75.79
2023-01-20T19:08:09.554Z,75.47
2023-01-20T19:10:36.574Z,76.40
2023-01-20T19:13:03.748Z,76.35
2023-01-20T19:15:33.505Z,76.50
2023-01-20T19:18:00.838Z,76.48
2023-01-20T19:20:27.885Z,76.07
2023-01-20T19:22:54.893Z,76.78
2023-01-20T19:25:22.057Z,77.23
2023-01-20T19:27:49.166Z,76.88
2023-01-20T19:30:16.864Z,76.86
2023-01-20T19:32:44.040Z,76.48
2023-01-20T19:35:11.020Z,76.95
2023-01-20T19:37:38.859Z,76.80
2023-01-20T19:40:06.025Z,77.27
2023-01-20T19:42:33.218Z,77.58
2023-01-20T19:45:00.187Z,77.84
2023-01-20T19:47:30.667Z,78.09
2023-01-20T19:49:57.923Z,78.54
2023-01-20T19:52:24.893Z,78.66
2023-01-20T19:54:52.138Z,78.49
2023-01-20T19:57:19.111Z,78.28
2023-01-20T19:59:46.099Z,78.44
2023-01-20T20:02:13.142Z,78.82
2023-01-20T20:04:40.092Z,78.55
2023-01-20T20:07:07.020Z,78.66
2023-01-20T20:09:34.067Z,79.18
2023-01-20T20:12:06.337Z,79.45
2023-01-20T20:14:33.800Z,79.82
2023-01-20T20:17:00.830Z,79.99
2023-01-20T20:19:27.766Z,79.92
2023-01-20T20:21:56.569Z,79.77
2023-01-20T20:24:23.634Z,80.62
2023-01-20T20:26:50.631Z,80.45
2023-01-20T20:29:19.064Z,80.90
2023-01-20T20:31:46.304Z,81.23
2023-01-20T20:34:14.601Z,80.72
2023-01-20T20:36:41.711Z,81.51
2023-01-20T20:39:08.713Z,81.33
2023-01-20T20:41:36.887Z,81.84
2023-01-20T20:44:04.349Z,81.30
2023-01-20T20:46:31.362Z,81.52
2023-01-20T20:49:01.112Z,81.45
2023-01-20T20:51:29.275Z,81.32
2023-01-20T20:53:56.663Z,81.62
2023-01-20T20:56:24.026Z,81.99
2023-01-20T20:59:01.276Z,82.10
2023-01-20T21:01:30.230Z,82.46
2023-01-20T21:03:58.396Z,82.45
2023-01-20T21:06:25.659Z,82.78
2023-01-20T21:08:52.884Z,82.93
2023-01-20T21:11:21.019Z,83.57
2023-01-20T21:13:49.798Z,83.05
2023-01-20T21:16:18.160Z,83.13
2023-01-20T21:18:45.234Z,82.88
2023-01-20T21:21:13.230Z,83.32
2023-01-20T21:23:42.017Z,83.56
2023-01-20T21:26:12.098Z,82.88
2023-01-20T21:28:40.099Z,82.47
2023-01-20T21:31:07.840Z,82.25
2023-01-20T21:33:36.794Z,82.16
2023-01-20T21:36:09.327Z,82.66
2023-01-20T21:38:37.805Z,83.30
2023-01-20T21:41:05.284Z,83.00
2023-01-20T21:43:36.214Z,82.71
2023-01-20T21:46:03.091Z,83.23
2023-01-20T21:48:33.128Z,83.52
2023-01-20T21:51:04.067Z,83.36
2023-01-20T21:53:31.050Z,83.22
2023-01-20T21:55:58.079Z,83.32
2023-01-20T21:58:24.999Z,83.42
2023-01-20T22:00:54.950Z,83.59
2023-01-20T22:03:21.982Z,83.63
2023-01-20T22:05:48.891Z,83.94
2023-01-20T22:08:15.743Z,83.78
2023-01-20T22:10:42.728Z,83.51
2023-01-20T22:13:09.699Z,84.02
2023-01-20T22:15:37.556Z,83.77
2023-01-20T22:18:05.944Z,83.57
2023-01-20T22:20:32.953Z,83.76
2023-01-20T22:22:59.839Z,83.69
2023-01-20T22:25:26.853Z,84.44
2023-01-20T22:27:53.753Z,84.38
2023-01-20T22:30:20.747Z,84.80
2023-01-20T22:32:47.689Z,84.55
2023-01-20T22:35:14.651Z,84.94
2023-01-20T22:37:41.623Z,84.52
2023-01-20T22:40:09.054Z,84.51
2023-01-20T22:42:35.959Z,84.56
2023-01-20T22:45:02.902Z,84.55
2023-01-20T22:47:29.853Z,84.63
2023-01-20T22:49:57.230Z,84.70
2023-01-20T22:52:24.173Z,84.64
2023-01-20T22:54:51.115Z,84.69
2023-01-20T22:57:17.993Z,84.60
2023-01-20T22:59:44.913Z,84.99
2023-01-20T23:02:11.848Z,84.97
2023-01-20T23:04:38.774Z,84.79
2023-01-20T23:07:05.611Z,85.11
2023-01-20T23:09:32.592Z,85.03
2023-01-20T23:11:59.615Z,85.23
2023-01-20T23:14:29.650Z,85.30
2023-01-20T23:16:56.800Z,85.24
2023-01-20T23:19:23.790Z,85.36
2023-01-20T23:21:50.823Z,85.68
2023-01-20T23:24:17.705Z,85.86
2023-01-20T23:26:44.637Z,85.65
2023-01-20T23:29:11.603Z,85.10
2023-01-20T23:31:38.570Z,84.92
2023-01-20T23:34:05.431Z,85.64
2023-01-20T23:36:32.463Z,84.74
2023-01-20T23:38:59.332Z,84.82
2023-01-20T23:41:26.388Z,84.00
2023-01-20T23:43:53.248Z,83.92
2023-01-20T23:46:20.092Z,83.84
2023-01-20T23:48:47.218Z,83.95
2023-01-20T23:51:14.227Z,83.85
2023-01-20T23:53:41.545Z,83.79
2023-01-20T23:56:12.054Z,83.56
2023-01-20T23:58:39.757Z,84.36
